sensor_id;sensor_type;location;lat;lon;timestamp;pressure;altitude;pressure_sealevel;temperature;humidity
63665;BME280;49820;33.966;73.390;2023-05-19T02:28:32;78826.25;;;19.55;45.98
63665;BME280;49820;33.966;73.390;2023-05-19T02:31:02;78840.72;;;19.90;54.17
63665;BME280;49820;33.966;73.390;2023-05-19T02:33:34;78811.44;;;20.05;45.84
63665;BME280;49820;33.966;73.390;2023-05-19T02:36:07;78840.88;;;20.38;42.70
63665;BME280;49820;33.966;73.390;2023-05-19T02:53:17;78820.06;;;20.96;41.84
63665;BME280;49820;33.966;73.390;2023-05-19T02:55:48;78838.41;;;21.21;44.66
63665;BME280;49820;33.966;73.390;2023-05-19T02:58:17;78810.88;;;21.27;52.20
63665;BME280;49820;33.966;73.390;2023-05-19T03:00:49;78808.72;;;21.76;51.67
63665;BME280;49820;33.966;73.390;2023-05-19T03:03:19;78821.44;;;22.03;47.97
63665;BME280;49820;33.966;73.390;2023-05-19T03:05:50;78842.97;;;22.41;47.58
63665;BME280;49820;33.966;73.390;2023-05-19T03:08:22;78843.84;;;22.71;51.57
63665;BME280;49820;33.966;73.390;2023-05-19T03:10:53;78843.19;;;22.60;41.23
63665;BME280;49820;33.966;73.390;2023-05-19T03:13:23;78850.50;;;22.40;39.03
63665;BME280;49820;33.966;73.390;2023-05-19T03:15:54;78837.78;;;22.37;48.35
63665;BME280;49820;33.966;73.390;2023-05-19T03:18:27;78836.81;;;22.30;40.53
63665;BME280;49820;33.966;73.390;2023-05-19T03:20:57;78840.66;;;22.12;41.54
63665;BME280;49820;33.966;73.390;2023-05-19T03:23:27;78820.25;;;22.68;41.16
63665;BME280;49820;33.966;73.390;2023-05-19T03:25:58;78853.06;;;23.10;41.33
63665;BME280;49820;33.966;73.390;2023-05-19T03:28:30;78804.59;;;22.90;41.44
63665;BME280;49820;33.966;73.390;2023-05-19T03:31:00;78845.44;;;23.55;44.38
63665;BME280;49820;33.966;73.390;2023-05-19T03:33:36;78833.22;;;23.86;45.62
63665;BME280;49820;33.966;73.390;2023-05-19T03:36:06;78839.41;;;24.27;45.69
63665;BME280;49820;33.966;73.390;2023-05-19T03:38:38;78842.69;;;23.77;39.08
63665;BME280;49820;33.966;73.390;2023-05-19T03:41:09;78832.59;;;23.65;39.31
63665;BME280;49820;33.966;73.390;2023-05-19T03:43:38;78846.69;;;24.10;39.13
63665;BME280;49820;33.966;73.390;2023-05-19T03:46:09;78845.66;;;24.05;39.96
63665;BME280;49820;33.966;73.390;2023-05-19T03:48:57;78797.78;;;23.54;40.20
63665;BME280;49820;33.966;73.390;2023-05-19T03:51:45;78838.78;;;23.84;40.47
63665;BME280;49820;33.966;73.390;2023-05-19T03:54:23;78839.69;;;24.23;39.21
63665;BME280;49820;33.966;73.390;2023-05-19T03:56:54;78852.06;;;24.63;39.03
63665;BME280;49820;33.966;73.390;2023-05-19T03:59:24;78842.31;;;23.72;40.23
63665;BME280;49820;33.966;73.390;2023-05-19T04:01:55;78845.81;;;24.24;41.04
63665;BME280;49820;33.966;73.390;2023-05-19T04:04:26;78825.13;;;24.97;45.24
63665;BME280;49820;33.966;73.390;2023-05-19T04:06:56;78828.06;;;24.44;39.25
63665;BME280;49820;33.966;73.390;2023-05-19T04:09:26;78838.53;;;24.20;38.50
63665;BME280;49820;33.966;73.390;2023-05-19T04:11:56;78843.53;;;24.88;44.20
63665;BME280;49820;33.966;73.390;2023-05-19T04:14:26;78853.72;;;24.68;40.15
63665;BME280;49820;33.966;73.390;2023-05-19T04:16:56;78821.47;;;24.09;38.37
63665;BME280;49820;33.966;73.390;2023-05-19T04:19:27;78842.78;;;24.79;41.65
63665;BME280;49820;33.966;73.390;2023-05-19T04:21:57;78841.78;;;24.63;40.47
63665;BME280;49820;33.966;73.390;2023-05-19T04:24:27;78831.25;;;25.28;40.42
63665;BME280;49820;33.966;73.390;2023-05-19T04:26:58;78752.59;;;24.79;36.65
63665;BME280;49820;33.966;73.390;2023-05-19T04:29:33;78827.69;;;24.40;39.24
63665;BME280;49820;33.966;73.390;2023-05-19T04:32:04;78816.06;;;24.50;38.20
63665;BME280;49820;33.966;73.390;2023-05-19T04:34:35;78852.16;;;24.20;38.10
63665;BME280;49820;33.966;73.390;2023-05-19T04:37:08;78847.16;;;24.44;44.13
63665;BME280;49820;33.966;73.390;2023-05-19T04:39:39;78747.22;;;23.77;38.43
63665;BME280;49820;33.966;73.390;2023-05-19T04:42:13;78846.03;;;24.20;39.07
63665;BME280;49820;33.966;73.390;2023-05-19T04:44:48;78838.88;;;25.06;39.06
63665;BME280;49820;33.966;73.390;2023-05-19T04:47:22;78819.63;;;24.38;37.60
63665;BME280;49820;33.966;73.390;2023-05-19T04:49:56;78834.75;;;24.66;38.35
63665;BME280;49820;33.966;73.390;2023-05-19T04:52:29;78834.13;;;24.55;40.06
63665;BME280;49820;33.966;73.390;2023-05-19T04:55:00;78848.47;;;24.86;39.68
63665;BME280;49820;33.966;73.390;2023-05-19T04:57:31;78852.19;;;25.01;40.99
63665;BME280;49820;33.966;73.390;2023-05-19T05:00:01;78835.50;;;25.05;41.00
63665;BME280;49820;33.966;73.390;2023-05-19T05:02:39;78836.50;;;25.21;38.01
63665;BME280;49820;33.966;73.390;2023-05-19T05:05:12;78825.28;;;25.64;40.39
63665;BME280;49820;33.966;73.390;2023-05-19T05:07:42;78829.34;;;24.86;38.84
63665;BME280;49820;33.966;73.390;2023-05-19T05:10:12;78856.50;;;25.28;40.46
63665;BME280;49820;33.966;73.390;2023-05-19T05:12:43;78852.56;;;25.36;41.36
63665;BME280;49820;33.966;73.390;2023-05-19T05:15:13;78836.16;;;25.06;38.07
63665;BME280;49820;33.966;73.390;2023-05-19T05:17:46;78840.50;;;25.22;38.95
63665;BME280;49820;33.966;73.390;2023-05-19T05:20:17;78836.44;;;25.51;41.11
63665;BME280;49820;33.966;73.390;2023-05-19T05:22:48;78856.25;;;25.90;40.77
63665;BME280;49820;33.966;73.390;2023-05-19T05:25:19;78852.06;;;25.72;41.90
63665;BME280;49820;33.966;73.390;2023-05-19T05:27:50;78865.09;;;25.22;39.39
63665;BME280;49820;33.966;73.390;2023-05-19T05:30:20;78854.50;;;25.37;39.55
63665;BME280;49820;33.966;73.390;2023-05-19T05:32:51;78848.28;;;25.28;38.95
63665;BME280;49820;33.966;73.390;2023-05-19T05:35:33;78843.63;;;25.27;41.08
63665;BME280;49820;33.966;73.390;2023-05-19T05:38:05;78855.00;;;25.40;41.25
63665;BME280;49820;33.966;73.390;2023-05-19T05:40:36;78866.63;;;25.98;41.58
63665;BME280;49820;33.966;73.390;2023-05-19T05:43:07;78832.53;;;25.48;38.08
63665;BME280;49820;33.966;73.390;2023-05-19T05:45:45;78863.34;;;25.57;37.48
63665;BME280;49820;33.966;73.390;2023-05-19T05:48:15;78860.63;;;26.15;45.26
63665;BME280;49820;33.966;73.390;2023-05-19T05:50:47;78854.38;;;25.59;38.02
63665;BME280;49820;33.966;73.390;2023-05-19T05:53:24;78836.50;;;24.91;39.11
63665;BME280;49820;33.966;73.390;2023-05-19T05:55:55;78843.84;;;25.33;40.11
63665;BME280;49820;33.966;73.390;2023-05-19T05:58:34;78841.84;;;26.00;38.95
63665;BME280;49820;33.966;73.390;2023-05-19T06:01:06;78848.38;;;26.33;37.26
63665;BME280;49820;33.966;73.390;2023-05-19T06:03:41;78848.94;;;25.29;39.33
63665;BME280;49820;33.966;73.390;2023-05-19T06:06:19;78853.28;;;26.41;37.44
63665;BME280;49820;33.966;73.390;2023-05-19T06:08:50;78844.09;;;26.73;39.51
63665;BME280;49820;33.966;73.390;2023-05-19T06:11:21;78785.06;;;26.37;43.27
63665;BME280;49820;33.966;73.390;2023-05-19T06:13:53;78851.88;;;27.07;39.65
63665;BME280;49820;33.966;73.390;2023-05-19T06:16:42;78846.75;;;27.20;39.64
63665;BME280;49820;33.966;73.390;2023-05-19T06:19:14;78807.78;;;26.36;34.90
63665;BME280;49820;33.966;73.390;2023-05-19T06:21:45;78839.41;;;25.77;37.28
63665;BME280;49820;33.966;73.390;2023-05-19T06:24:15;78845.53;;;26.72;42.53
63665;BME280;49820;33.966;73.390;2023-05-19T06:26:45;78838.13;;;26.98;43.57
63665;BME280;49820;33.966;73.390;2023-05-19T06:29:16;78817.03;;;26.21;37.74
63665;BME280;49820;33.966;73.390;2023-05-19T06:31:47;78820.34;;;26.13;37.88
63665;BME280;49820;33.966;73.390;2023-05-19T06:34:17;78849.97;;;27.22;40.41
63665;BME280;49820;33.966;73.390;2023-05-19T06:36:47;78840.03;;;27.45;37.82
63665;BME280;49820;33.966;73.390;2023-05-19T06:39:18;78828.09;;;27.40;36.78
63665;BME280;49820;33.966;73.390;2023-05-19T06:41:48;78813.50;;;27.15;36.05
63665;BME280;49820;33.966;73.390;2023-05-19T06:44:44;78838.06;;;27.97;34.65
63665;BME280;49820;33.966;73.390;2023-05-19T06:47:16;78816.53;;;27.65;37.39
63665;BME280;49820;33.966;73.390;2023-05-19T06:49:46;78833.06;;;28.08;34.24
63665;BME280;49820;33.966;73.390;2023-05-19T06:52:27;78796.06;;;27.19;34.34
63665;BME280;49820;33.966;73.390;2023-05-19T06:54:57;78795.22;;;27.74;35.80
63665;BME280;49820;33.966;73.390;2023-05-19T06:57:27;78821.75;;;27.95;37.30
63665;BME280;49820;33.966;73.390;2023-05-19T06:59:57;78843.06;;;27.94;34.52
63665;BME280;49820;33.966;73.390;2023-05-19T07:02:27;78836.59;;;28.06;32.74
63665;BME280;49820;33.966;73.390;2023-05-19T07:04:57;78826.44;;;27.88;42.01
63665;BME280;49820;33.966;73.390;2023-05-19T07:07:28;78833.75;;;28.43;36.88
63665;BME280;49820;33.966;73.390;2023-05-19T07:09:58;78816.25;;;28.03;35.24
63665;BME280;49820;33.966;73.390;2023-05-19T07:12:29;78813.81;;;27.91;37.62
63665;BME280;49820;33.966;73.390;2023-05-19T07:15:00;78813.56;;;27.50;34.11
63665;BME280;49820;33.966;73.390;2023-05-19T07:17:31;78832.25;;;28.09;37.25
63665;BME280;49820;33.966;73.390;2023-05-19T07:20:01;78822.44;;;27.50;35.35
63665;BME280;49820;33.966;73.390;2023-05-19T07:22:35;78835.50;;;28.46;38.37
63665;BME280;49820;33.966;73.390;2023-05-19T07:25:07;78826.59;;;28.63;40.64
63665;BME280;49820;33.966;73.390;2023-05-19T07:27:39;78823.81;;;28.89;33.33
63665;BME280;49820;33.966;73.390;2023-05-19T07:30:10;78811.13;;;28.34;33.81
63665;BME280;49820;33.966;73.390;2023-05-19T07:32:40;78828.38;;;28.58;33.91
63665;BME280;49820;33.966;73.390;2023-05-19T07:35:09;78767.13;;;27.91;36.37
63665;BME280;49820;33.966;73.390;2023-05-19T07:37:39;78828.91;;;28.35;35.22
63665;BME280;49820;33.966;73.390;2023-05-19T07:40:10;78819.16;;;28.10;36.64
63665;BME280;49820;33.966;73.390;2023-05-19T07:42:40;78831.13;;;28.58;35.51
63665;BME280;49820;33.966;73.390;2023-05-19T07:45:11;78823.53;;;28.07;33.50
63665;BME280;49820;33.966;73.390;2023-05-19T07:47:40;78827.53;;;27.73;35.57
63665;BME280;49820;33.966;73.390;2023-05-19T07:50:10;78822.47;;;26.96;36.07
63665;BME280;49820;33.966;73.390;2023-05-19T07:52:40;78792.53;;;28.17;39.83
63665;BME280;49820;33.966;73.390;2023-05-19T07:55:10;78805.44;;;28.53;33.11
63665;BME280;49820;33.966;73.390;2023-05-19T07:57:41;78820.59;;;27.92;34.59
63665;BME280;49820;33.966;73.390;2023-05-19T08:00:12;78829.38;;;28.29;37.18
63665;BME280;49820;33.966;73.390;2023-05-19T08:02:42;78800.25;;;27.80;40.96
63665;BME280;49820;33.966;73.390;2023-05-19T08:05:12;78807.03;;;28.07;37.47
63665;BME280;49820;33.966;73.390;2023-05-19T08:07:43;78820.78;;;28.84;33.72
63665;BME280;49820;33.966;73.390;2023-05-19T08:10:13;78816.75;;;27.89;35.17
63665;BME280;49820;33.966;73.390;2023-05-19T08:12:45;78814.34;;;28.28;37.15
63665;BME280;49820;33.966;73.390;2023-05-19T08:15:15;78811.09;;;28.77;42.15
63665;BME280;49820;33.966;73.390;2023-05-19T08:17:47;78827.25;;;28.81;35.11
63665;BME280;49820;33.966;73.390;2023-05-19T08:20:17;78813.19;;;28.59;35.74
63665;BME280;49820;33.966;73.390;2023-05-19T08:22:47;78828.25;;;28.17;34.64
63665;BME280;49820;33.966;73.390;2023-05-19T08:25:17;78830.31;;;28.94;41.61
63665;BME280;49820;33.966;73.390;2023-05-19T08:27:47;78809.94;;;28.82;41.35
63665;BME280;49820;33.966;73.390;2023-05-19T08:30:18;78806.06;;;29.29;39.23
63665;BME280;49820;33.966;73.390;2023-05-19T08:32:48;78806.09;;;28.10;33.15
63665;BME280;49820;33.966;73.390;2023-05-19T08:35:18;78820.00;;;28.77;37.00
63665;BME280;49820;33.966;73.390;2023-05-19T08:37:49;78801.72;;;27.96;34.40
63665;BME280;49820;33.966;73.390;2023-05-19T08:40:20;78773.75;;;27.59;34.58
63665;BME280;49820;33.966;73.390;2023-05-19T08:42:50;78784.59;;;27.96;34.59
63665;BME280;49820;33.966;73.390;2023-05-19T08:45:20;78801.72;;;28.48;34.99
63665;BME280;49820;33.966;73.390;2023-05-19T08:47:50;78812.69;;;27.79;35.94
63665;BME280;49820;33.966;73.390;2023-05-19T08:50:25;78797.22;;;28.27;42.07
63665;BME280;49820;33.966;73.390;2023-05-19T08:53:11;78800.50;;;27.50;34.35
63665;BME280;49820;33.966;73.390;2023-05-19T08:56:15;78805.41;;;27.84;37.79
63665;BME280;49820;33.966;73.390;2023-05-19T08:58:48;78795.41;;;28.15;32.67
63665;BME280;49820;33.966;73.390;2023-05-19T09:01:19;78792.31;;;27.59;32.05
63665;BME280;49820;33.966;73.390;2023-05-19T09:03:51;78801.38;;;27.92;37.82
63665;BME280;49820;33.966;73.390;2023-05-19T09:06:21;78787.00;;;28.08;32.34
63665;BME280;49820;33.966;73.390;2023-05-19T09:08:51;78782.00;;;27.85;36.22
63665;BME280;49820;33.966;73.390;2023-05-19T09:11:21;78773.69;;;27.42;32.89
63665;BME280;49820;33.966;73.390;2023-05-19T09:13:51;78721.53;;;27.25;36.41
63665;BME280;49820;33.966;73.390;2023-05-19T09:16:21;78793.19;;;28.26;35.43
63665;BME280;49820;33.966;73.390;2023-05-19T09:18:56;78776.81;;;28.50;33.75
63665;BME280;49820;33.966;73.390;2023-05-19T09:21:30;78769.91;;;28.34;34.90
63665;BME280;49820;33.966;73.390;2023-05-19T09:24:05;78772.28;;;28.46;34.01
63665;BME280;49820;33.966;73.390;2023-05-19T09:26:39;78777.00;;;27.96;34.87
63665;BME280;49820;33.966;73.390;2023-05-19T09:29:11;78782.34;;;28.41;34.47
63665;BME280;49820;33.966;73.390;2023-05-19T09:31:49;78762.63;;;28.04;38.85
63665;BME280;49820;33.966;73.390;2023-05-19T09:34:20;78773.94;;;28.00;33.23
63665;BME280;49820;33.966;73.390;2023-05-19T09:36:52;78748.59;;;28.17;38.74
63665;BME280;49820;33.966;73.390;2023-05-19T09:39:23;78751.44;;;28.41;37.57
63665;BME280;49820;33.966;73.390;2023-05-19T09:41:55;78749.53;;;27.79;38.05
63665;BME280;49820;33.966;73.390;2023-05-19T09:44:27;78749.38;;;27.98;34.04
63665;BME280;49820;33.966;73.390;2023-05-19T09:46:58;78780.25;;;28.33;35.04
63665;BME280;49820;33.966;73.390;2023-05-19T09:49:30;78777.47;;;28.59;36.76
63665;BME280;49820;33.966;73.390;2023-05-19T09:52:03;78760.69;;;28.12;36.12
63665;BME280;49820;33.966;73.390;2023-05-19T09:54:33;78763.25;;;28.31;33.42
63665;BME280;49820;33.966;73.390;2023-05-19T09:57:04;78764.25;;;27.93;34.68
63665;BME280;49820;33.966;73.390;2023-05-19T09:59:36;78748.25;;;27.78;38.98
63665;BME280;49820;33.966;73.390;2023-05-19T10:02:16;78759.88;;;28.13;32.44
63665;BME280;49820;33.966;73.390;2023-05-19T10:04:49;78765.22;;;27.72;37.95
63665;BME280;49820;33.966;73.390;2023-05-19T10:07:20;78756.16;;;27.56;36.45
63665;BME280;49820;33.966;73.390;2023-05-19T10:09:53;78761.19;;;27.88;32.29
63665;BME280;49820;33.966;73.390;2023-05-19T10:12:25;78766.53;;;27.19;33.66
63665;BME280;49820;33.966;73.390;2023-05-19T10:14:56;78764.25;;;27.84;35.76
63665;BME280;49820;33.966;73.390;2023-05-19T10:17:27;78727.59;;;27.88;35.80
63665;BME280;49820;33.966;73.390;2023-05-19T10:19:58;78766.34;;;27.84;38.85
63665;BME280;49820;33.966;73.390;2023-05-19T10:22:29;78735.97;;;27.68;31.87
63665;BME280;49820;33.966;73.390;2023-05-19T10:25:01;78763.25;;;27.62;33.88
63665;BME280;49820;33.966;73.390;2023-05-19T10:27:33;78768.75;;;28.14;34.22
63665;BME280;49820;33.966;73.390;2023-05-19T10:30:12;78715.13;;;26.75;33.47
63665;BME280;49820;33.966;73.390;2023-05-19T10:32:46;78759.50;;;27.40;33.98
63665;BME280;49820;33.966;73.390;2023-05-19T10:41:10;78759.97;;;27.33;32.86
63665;BME280;49820;33.966;73.390;2023-05-19T10:46:43;78736.81;;;26.59;32.71
63665;BME280;49820;33.966;73.390;2023-05-19T10:49:22;78754.66;;;26.86;31.82
63665;BME280;49820;33.966;73.390;2023-05-19T10:51:54;78749.22;;;26.50;31.84
63665;BME280;49820;33.966;73.390;2023-05-19T10:54:41;78742.75;;;26.53;31.74
63665;BME280;49820;33.966;73.390;2023-05-19T10:57:26;78756.44;;;26.90;34.59
63665;BME280;49820;33.966;73.390;2023-05-19T10:59:57;78713.84;;;26.82;33.23
63665;BME280;49820;33.966;73.390;2023-05-19T11:02:42;78719.38;;;26.46;32.72
63665;BME280;49820;33.966;73.390;2023-05-19T11:05:14;78746.00;;;27.01;32.32
63665;BME280;49820;33.966;73.390;2023-05-19T11:07:59;78713.88;;;26.46;36.65
63665;BME280;49820;33.966;73.390;2023-05-19T11:10:43;78733.38;;;26.87;36.60
63665;BME280;49820;33.966;73.390;2023-05-19T11:13:21;78738.53;;;26.82;34.48
63665;BME280;49820;33.966;73.390;2023-05-19T11:15:55;78744.53;;;26.48;33.76
63665;BME280;49820;33.966;73.390;2023-05-19T11:18:25;78685.75;;;25.92;32.26
63665;BME280;49820;33.966;73.390;2023-05-19T11:20:59;78732.91;;;26.20;31.39
63665;BME280;49820;33.966;73.390;2023-05-19T11:23:37;78731.25;;;26.06;30.03
63665;BME280;49820;33.966;73.390;2023-05-19T11:26:12;78731.09;;;26.08;31.00
63665;BME280;49820;33.966;73.390;2023-05-19T11:28:42;78706.03;;;25.95;33.07
63665;BME280;49820;33.966;73.390;2023-05-19T11:31:12;78736.97;;;25.93;33.11
63665;BME280;49820;33.966;73.390;2023-05-19T11:33:42;78701.81;;;25.59;36.73
63665;BME280;49820;33.966;73.390;2023-05-19T11:36:13;78728.06;;;25.84;31.37
63665;BME280;49820;33.966;73.390;2023-05-19T11:38:46;78729.56;;;25.92;35.28
63665;BME280;49820;33.966;73.390;2023-05-19T11:41:38;78724.88;;;25.43;34.72
63665;BME280;49820;33.966;73.390;2023-05-19T11:44:11;78705.09;;;25.70;33.95
63665;BME280;49820;33.966;73.390;2023-05-19T11:46:42;78706.78;;;24.80;34.75
63665;BME280;49820;33.966;73.390;2023-05-19T11:49:14;78701.97;;;24.80;35.18
63665;BME280;49820;33.966;73.390;2023-05-19T11:51:45;78721.59;;;24.63;33.78
63665;BME280;49820;33.966;73.390;2023-05-19T11:54:15;78720.00;;;24.66;35.60
63665;BME280;49820;33.966;73.390;2023-05-19T11:56:47;78712.03;;;24.73;34.31
63665;BME280;49820;33.966;73.390;2023-05-19T11:59:17;78712.03;;;24.73;36.43
63665;BME280;49820;33.966;73.390;2023-05-19T12:02:16;78701.25;;;24.22;35.87
63665;BME280;49820;33.966;73.390;2023-05-19T12:04:47;78723.91;;;24.40;36.16
63665;BME280;49820;33.966;73.390;2023-05-19T12:07:19;78719.56;;;23.72;38.55
63665;BME280;49820;33.966;73.390;2023-05-19T12:09:51;78689.59;;;24.02;36.31
63665;BME280;49820;33.966;73.390;2023-05-19T12:12:22;78721.84;;;24.00;34.52
63665;BME280;49820;33.966;73.390;2023-05-19T12:14:52;78733.50;;;24.09;35.26
63665;BME280;49820;33.966;73.390;2023-05-19T12:17:23;78723.84;;;23.69;36.57
63665;BME280;49820;33.966;73.390;2023-05-19T12:19:53;78736.25;;;23.15;35.97
63665;BME280;49820;33.966;73.390;2023-05-19T12:22:25;78734.56;;;22.99;35.80
63665;BME280;49820;33.966;73.390;2023-05-19T12:24:55;78722.31;;;22.66;38.63
63665;BME280;49820;33.966;73.390;2023-05-19T12:27:26;78712.13;;;21.77;37.74
63665;BME280;49820;33.966;73.390;2023-05-19T12:29:56;78738.16;;;21.51;41.09
63665;BME280;49820;33.966;73.390;2023-05-19T12:32:27;78681.38;;;20.87;40.13
63665;BME280;49820;33.966;73.390;2023-05-19T12:34:58;78719.09;;;21.17;39.76
63665;BME280;49820;33.966;73.390;2023-05-19T12:37:28;78703.66;;;20.54;40.84
63665;BME280;49820;33.966;73.390;2023-05-19T12:39:59;78728.25;;;20.27;42.82
63665;BME280;49820;33.966;73.390;2023-05-19T12:42:30;78712.41;;;20.06;44.51
63665;BME280;49820;33.966;73.390;2023-05-19T12:45:03;78710.69;;;20.00;41.39
63665;BME280;49820;33.966;73.390;2023-05-19T12:47:34;78716.34;;;19.84;42.86
63665;BME280;49820;33.966;73.390;2023-05-19T12:50:06;78716.56;;;19.67;42.31
63665;BME280;49820;33.966;73.390;2023-05-19T12:52:45;78722.63;;;19.55;43.07
63665;BME280;49820;33.966;73.390;2023-05-19T12:55:16;78680.63;;;19.03;43.97
63665;BME280;49820;33.966;73.390;2023-05-19T12:57:50;78720.25;;;19.09;43.84
63665;BME280;49820;33.966;73.390;2023-05-19T13:00:26;78702.00;;;18.82;44.08
63665;BME280;49820;33.966;73.390;2023-05-19T13:03:03;78726.34;;;18.82;45.17
63665;BME280;49820;33.966;73.390;2023-05-19T13:05:38;78724.50;;;18.51;44.88
63665;BME280;49820;33.966;73.390;2023-05-19T13:08:13;78711.94;;;18.45;44.65
63665;BME280;49820;33.966;73.390;2023-05-19T13:10:45;78724.22;;;18.29;46.68
63665;BME280;49820;33.966;73.390;2023-05-19T13:13:16;78716.94;;;18.26;48.79
63665;BME280;49820;33.966;73.390;2023-05-19T13:15:47;78741.66;;;18.18;46.84
63665;BME280;49820;33.966;73.390;2023-05-19T13:18:17;78750.50;;;18.16;46.56
63665;BME280;49820;33.966;73.390;2023-05-19T13:20:47;78731.66;;;17.87;46.00
63665;BME280;49820;33.966;73.390;2023-05-19T13:23:20;78716.78;;;17.73;48.55
63665;BME280;49820;33.966;73.390;2023-05-19T13:25:50;78746.50;;;17.73;46.66
63665;BME280;49820;33.966;73.390;2023-05-19T13:28:21;78735.84;;;17.54;45.75
63665;BME280;49820;33.966;73.390;2023-05-19T13:30:52;78757.38;;;17.57;46.63
63665;BME280;49820;33.966;73.390;2023-05-19T13:33:23;78744.31;;;17.46;50.62
63665;BME280;49820;33.966;73.390;2023-05-19T13:35:53;78730.44;;;17.25;48.62
63665;BME280;49820;33.966;73.390;2023-05-19T13:38:25;78742.56;;;17.26;47.32
63665;BME280;49820;33.966;73.390;2023-05-19T13:40:55;78738.34;;;17.14;47.87
63665;BME280;49820;33.966;73.390;2023-05-19T13:43:25;78765.06;;;17.21;48.57
63665;BME280;49820;33.966;73.390;2023-05-19T13:45:56;78769.91;;;17.18;48.39
63665;BME280;49820;33.966;73.390;2023-05-19T13:48:26;78773.72;;;17.23;47.85
63665;BME280;49820;33.966;73.390;2023-05-19T13:50:56;78752.19;;;16.92;47.70
63665;BME280;49820;33.966;73.390;2023-05-19T13:53:26;78790.94;;;17.15;48.11
63665;BME280;49820;33.966;73.390;2023-05-19T13:55:59;78772.03;;;17.01;48.81
63665;BME280;49820;33.966;73.390;2023-05-19T13:58:30;78775.97;;;16.87;48.61
63665;BME280;49820;33.966;73.390;2023-05-19T14:01:00;78788.09;;;16.88;50.28
63665;BME280;49820;33.966;73.390;2023-05-19T14:03:29;78773.59;;;16.48;49.22
63665;BME280;49820;33.966;73.390;2023-05-19T14:06:00;78789.78;;;16.64;47.86
63665;BME280;49820;33.966;73.390;2023-05-19T14:08:30;78761.03;;;16.42;48.78
63665;BME280;49820;33.966;73.390;2023-05-19T14:11:01;78781.03;;;16.47;47.77
63665;BME280;49820;33.966;73.390;2023-05-19T14:13:31;78800.16;;;16.58;47.65
63665;BME280;49820;33.966;73.390;2023-05-19T14:16:08;78815.22;;;16.69;47.83
63665;BME280;49820;33.966;73.390;2023-05-19T14:18:38;78804.09;;;16.61;48.65
63665;BME280;49820;33.966;73.390;2023-05-19T14:21:08;78812.25;;;16.75;49.16
63665;BME280;49820;33.966;73.390;2023-05-19T14:23:39;78784.50;;;16.46;49.82
63665;BME280;49820;33.966;73.390;2023-05-19T14:26:10;78791.00;;;16.51;50.13
63665;BME280;49820;33.966;73.390;2023-05-19T14:28:40;78807.81;;;16.85;50.54
63665;BME280;49820;33.966;73.390;2023-05-19T14:31:11;78771.06;;;16.60;50.24
63665;BME280;49820;33.966;73.390;2023-05-19T14:33:43;78776.63;;;16.56;52.51
63665;BME280;49820;33.966;73.390;2023-05-19T14:36:12;78801.53;;;16.57;52.23
63665;BME280;49820;33.966;73.390;2023-05-19T14:38:43;78811.16;;;16.37;51.21
63665;BME280;49820;33.966;73.390;2023-05-19T14:41:13;78822.63;;;16.86;39.32
63665;BME280;49820;33.966;73.390;2023-05-19T14:43:43;78815.09;;;16.71;39.76
63665;BME280;49820;33.966;73.390;2023-05-19T14:46:14;78779.72;;;16.63;42.17
63665;BME280;49820;33.966;73.390;2023-05-19T14:48:45;78813.09;;;16.87;38.71
63665;BME280;49820;33.966;73.390;2023-05-19T14:51:15;78818.22;;;17.09;38.43
